Terminal Aerodrome Forecast
Issued by NWS Sterling, VA

Home | Current Version | Previous Version | Text Only | Print | Product List | Glossary On
Versions: 1 2 3 4 5 6 7 8 9 10 11 12 13 14 15 16 17 18 19 20 21 22 23 24 25 26
732
FTUS41 KLWX 220832 AAA
TAFDCA
TAF AMD
KDCA 220832Z 2209/2312 19006KT P6SM SCT060 BKN100
     FM221500 18008KT P6SM BKN060 BKN200
     FM221800 18008G16KT P6SM BKN200
     FM230600 18008KT 5SM -SHRA OVC015
     FM230900 18010G17KT 3SM -SHRA OVC008=

USA.gov is the U.S. government's official web portal to all federal, state and local government web resources and services.